sensor_id;sensor_type;location;lat;lon;timestamp;temperature;humidity
69335;SHT31;56477;52.742;15.242;2023-01-10T00:00:47;3.26;99.99
69335;SHT31;56477;52.742;15.242;2023-01-10T00:03:25;3.32;99.99
69335;SHT31;56477;52.742;15.242;2023-01-10T00:05:50;3.29;99.99
69335;SHT31;56477;52.742;15.242;2023-01-10T00:08:16;3.28;99.99
69335;SHT31;56477;52.742;15.242;2023-01-10T00:10:42;3.28;99.99
69335;SHT31;56477;52.742;15.242;2023-01-10T00:13:16;3.25;99.99
69335;SHT31;56477;52.742;15.242;2023-01-10T00:15:49;3.19;99.99
69335;SHT31;56477;52.742;15.242;2023-01-10T00:18:15;3.21;99.99
69335;SHT31;56477;52.742;15.242;2023-01-10T00:20:41;3.15;99.99
69335;SHT31;56477;52.742;15.242;2023-01-10T00:23:09;3.08;99.99
69335;SHT31;56477;52.742;15.242;2023-01-10T00:25:35;3.02;99.99
69335;SHT31;56477;52.742;15.242;2023-01-10T00:28:02;3.04;99.99
69335;SHT31;56477;52.742;15.242;2023-01-10T00:30:51;3.01;99.99
69335;SHT31;56477;52.742;15.242;2023-01-10T00:33:29;2.97;99.99
69335;SHT31;56477;52.742;15.242;2023-01-10T00:35:56;2.97;99.99
69335;SHT31;56477;52.742;15.242;2023-01-10T00:38:22;2.98;99.99
69335;SHT31;56477;52.742;15.242;2023-01-10T00:40:48;2.97;99.99
69335;SHT31;56477;52.742;15.242;2023-01-10T00:43:14;2.91;99.99
69335;SHT31;56477;52.742;15.242;2023-01-10T00:45:59;2.85;99.99
69335;SHT31;56477;52.742;15.242;2023-01-10T00:48:25;2.85;99.99
69335;SHT31;56477;52.742;15.242;2023-01-10T00:50:51;2.87;99.99
69335;SHT31;56477;52.742;15.242;2023-01-10T00:53:17;2.83;99.99
69335;SHT31;56477;52.742;15.242;2023-01-10T00:55:43;2.81;99.99
69335;SHT31;56477;52.742;15.242;2023-01-10T00:58:09;2.79;99.99
69335;SHT31;56477;52.742;15.242;2023-01-10T01:00:37;2.77;99.99
69335;SHT31;56477;52.742;15.242;2023-01-10T01:03:04;2.74;99.99
69335;SHT31;56477;52.742;15.242;2023-01-10T01:05:31;2.74;99.99
69335;SHT31;56477;52.742;15.242;2023-01-10T01:07:56;2.65;99.99
69335;SHT31;56477;52.742;15.242;2023-01-10T01:10:22;2.64;99.99
69335;SHT31;56477;52.742;15.242;2023-01-10T01:12:55;2.67;99.99
69335;SHT31;56477;52.742;15.242;2023-01-10T01:15:22;2.57;99.99
69335;SHT31;56477;52.742;15.242;2023-01-10T01:17:48;2.61;99.99
69335;SHT31;56477;52.742;15.242;2023-01-10T01:20:14;2.58;99.99
69335;SHT31;56477;52.742;15.242;2023-01-10T01:22:40;2.60;99.99
69335;SHT31;56477;52.742;15.242;2023-01-10T01:25:07;2.61;99.99
69335;SHT31;56477;52.742;15.242;2023-01-10T01:27:33;2.68;99.99
69335;SHT31;56477;52.742;15.242;2023-01-10T01:30:04;2.58;99.99
69335;SHT31;56477;52.742;15.242;2023-01-10T01:32:30;2.52;99.99
69335;SHT31;56477;52.742;15.242;2023-01-10T01:34:57;2.53;99.99
69335;SHT31;56477;52.742;15.242;2023-01-10T01:37:22;2.56;99.99
69335;SHT31;56477;52.742;15.242;2023-01-10T01:39:48;2.58;99.99
69335;SHT31;56477;52.742;15.242;2023-01-10T01:42:31;2.63;99.99
69335;SHT31;56477;52.742;15.242;2023-01-10T01:47:41;2.60;99.99
69335;SHT31;56477;52.742;15.242;2023-01-10T01:50:18;2.61;99.99
69335;SHT31;56477;52.742;15.242;2023-01-10T01:52:48;2.63;99.99
69335;SHT31;56477;52.742;15.242;2023-01-10T01:55:16;2.61;99.99
69335;SHT31;56477;52.742;15.242;2023-01-10T01:57:43;2.64;99.99
69335;SHT31;56477;52.742;15.242;2023-01-10T02:00:11;2.63;99.99
69335;SHT31;56477;52.742;15.242;2023-01-10T02:02:42;2.58;99.99
69335;SHT31;56477;52.742;15.242;2023-01-10T02:05:14;2.54;99.99
69335;SHT31;56477;52.742;15.242;2023-01-10T02:07:43;2.50;99.99
69335;SHT31;56477;52.742;15.242;2023-01-10T02:12:41;2.54;99.99
69335;SHT31;56477;52.742;15.242;2023-01-10T02:15:09;2.58;99.99
69335;SHT31;56477;52.742;15.242;2023-01-10T02:17:36;2.63;99.99
69335;SHT31;56477;52.742;15.242;2023-01-10T02:20:06;2.74;99.99
69335;SHT31;56477;52.742;15.242;2023-01-10T02:33:45;2.95;99.99
69335;SHT31;56477;52.742;15.242;2023-01-10T02:39:01;2.91;99.99
69335;SHT31;56477;52.742;15.242;2023-01-10T02:41:46;2.88;99.96
69335;SHT31;56477;52.742;15.242;2023-01-10T02:44:35;2.85;99.73
69335;SHT31;56477;52.742;15.242;2023-01-10T02:47:04;2.87;99.93
69335;SHT31;56477;52.742;15.242;2023-01-10T02:49:43;2.87;99.89
69335;SHT31;56477;52.742;15.242;2023-01-10T02:52:12;2.90;99.84
69335;SHT31;56477;52.742;15.242;2023-01-10T02:54:39;2.84;99.83
69335;SHT31;56477;52.742;15.242;2023-01-10T03:08:42;2.81;99.85
69335;SHT31;56477;52.742;15.242;2023-01-10T03:11:13;2.81;99.85
69335;SHT31;56477;52.742;15.242;2023-01-10T03:13:50;2.83;99.92
69335;SHT31;56477;52.742;15.242;2023-01-10T03:16:19;2.81;99.77
69335;SHT31;56477;52.742;15.242;2023-01-10T03:18:53;2.80;99.94
69335;SHT31;56477;52.742;15.242;2023-01-10T03:21:24;2.77;99.99
69335;SHT31;56477;52.742;15.242;2023-01-10T03:23:54;2.77;99.99
69335;SHT31;56477;52.742;15.242;2023-01-10T03:26:28;2.79;99.99
69335;SHT31;56477;52.742;15.242;2023-01-10T03:29:01;2.74;99.99
69335;SHT31;56477;52.742;15.242;2023-01-10T03:31:44;2.79;99.99
69335;SHT31;56477;52.742;15.242;2023-01-10T03:34:13;2.79;99.99
69335;SHT31;56477;52.742;15.242;2023-01-10T03:36:59;2.80;99.99
69335;SHT31;56477;52.742;15.242;2023-01-10T03:42:19;2.80;99.96
69335;SHT31;56477;52.742;15.242;2023-01-10T03:45:03;2.77;99.96
69335;SHT31;56477;52.742;15.242;2023-01-10T03:47:43;2.74;99.91
69335;SHT31;56477;52.742;15.242;2023-01-10T03:50:16;2.70;99.85
69335;SHT31;56477;52.742;15.242;2023-01-10T03:52:43;2.73;99.87
69335;SHT31;56477;52.742;15.242;2023-01-10T03:55:12;2.67;99.83
69335;SHT31;56477;52.742;15.242;2023-01-10T03:57:41;2.61;99.79
69335;SHT31;56477;52.742;15.242;2023-01-10T04:00:08;2.61;99.81
69335;SHT31;56477;52.742;15.242;2023-01-10T04:02:34;2.54;99.72
69335;SHT31;56477;52.742;15.242;2023-01-10T04:05:01;2.56;99.84
69335;SHT31;56477;52.742;15.242;2023-01-10T04:07:26;2.57;99.74
69335;SHT31;56477;52.742;15.242;2023-01-10T04:09:53;2.54;99.58
69335;SHT31;56477;52.742;15.242;2023-01-10T04:12:19;2.50;99.53
69335;SHT31;56477;52.742;15.242;2023-01-10T04:14:45;2.47;99.74
69335;SHT31;56477;52.742;15.242;2023-01-10T04:17:12;2.46;99.85
69335;SHT31;56477;52.742;15.242;2023-01-10T04:19:39;2.54;99.90
69335;SHT31;56477;52.742;15.242;2023-01-10T04:22:05;2.53;99.86
69335;SHT31;56477;52.742;15.242;2023-01-10T04:24:31;2.52;99.97
69335;SHT31;56477;52.742;15.242;2023-01-10T04:26:57;2.57;99.97
69335;SHT31;56477;52.742;15.242;2023-01-10T04:29:23;2.56;99.92
69335;SHT31;56477;52.742;15.242;2023-01-10T04:31:49;2.57;99.99
69335;SHT31;56477;52.742;15.242;2023-01-10T04:34:16;2.58;99.99
69335;SHT31;56477;52.742;15.242;2023-01-10T04:36:43;2.63;99.99
69335;SHT31;56477;52.742;15.242;2023-01-10T04:39:09;2.60;99.99
69335;SHT31;56477;52.742;15.242;2023-01-10T04:41:34;2.65;99.99
69335;SHT31;56477;52.742;15.242;2023-01-10T04:44:00;2.74;99.99
69335;SHT31;56477;52.742;15.242;2023-01-10T04:46:26;2.80;99.99
69335;SHT31;56477;52.742;15.242;2023-01-10T04:48:52;2.90;99.99
69335;SHT31;56477;52.742;15.242;2023-01-10T04:51:18;2.98;99.99
69335;SHT31;56477;52.742;15.242;2023-01-10T04:53:44;3.04;99.99
69335;SHT31;56477;52.742;15.242;2023-01-10T04:56:15;3.13;99.99
69335;SHT31;56477;52.742;15.242;2023-01-10T04:58:41;3.18;99.99
69335;SHT31;56477;52.742;15.242;2023-01-10T05:01:09;3.28;99.99
69335;SHT31;56477;52.742;15.242;2023-01-10T05:03:35;3.32;99.99
69335;SHT31;56477;52.742;15.242;2023-01-10T05:06:01;3.40;99.99
69335;SHT31;56477;52.742;15.242;2023-01-10T05:08:28;3.40;99.99
69335;SHT31;56477;52.742;15.242;2023-01-10T05:10:53;3.44;99.99
69335;SHT31;56477;52.742;15.242;2023-01-10T05:13:19;3.48;99.99
69335;SHT31;56477;52.742;15.242;2023-01-10T05:15:45;3.63;99.99
69335;SHT31;56477;52.742;15.242;2023-01-10T05:18:11;3.64;99.99
69335;SHT31;56477;52.742;15.242;2023-01-10T05:20:37;3.91;99.99
69335;SHT31;56477;52.742;15.242;2023-01-10T05:23:03;3.97;99.99
69335;SHT31;56477;52.742;15.242;2023-01-10T05:25:29;4.12;99.99
69335;SHT31;56477;52.742;15.242;2023-01-10T05:27:55;4.20;99.99
69335;SHT31;56477;52.742;15.242;2023-01-10T05:30:21;4.31;99.99
69335;SHT31;56477;52.742;15.242;2023-01-10T05:32:47;4.46;99.90
69335;SHT31;56477;52.742;15.242;2023-01-10T05:35:12;4.56;99.36
69335;SHT31;56477;52.742;15.242;2023-01-10T05:37:38;4.59;99.23
69335;SHT31;56477;52.742;15.242;2023-01-10T05:40:05;4.65;99.06
69335;SHT31;56477;52.742;15.242;2023-01-10T05:42:31;4.70;98.92
69335;SHT31;56477;52.742;15.242;2023-01-10T05:44:57;4.75;98.86
69335;SHT31;56477;52.742;15.242;2023-01-10T05:47:23;4.72;98.86
69335;SHT31;56477;52.742;15.242;2023-01-10T05:49:49;4.75;98.74
69335;SHT31;56477;52.742;15.242;2023-01-10T05:52:15;4.84;98.35
69335;SHT31;56477;52.742;15.242;2023-01-10T05:54:41;4.80;98.63
69335;SHT31;56477;52.742;15.242;2023-01-10T05:57:07;4.77;98.80
69335;SHT31;56477;52.742;15.242;2023-01-10T05:59:33;4.87;98.54
69335;SHT31;56477;52.742;15.242;2023-01-10T06:01:59;4.81;98.75
69335;SHT31;56477;52.742;15.242;2023-01-10T06:04:25;4.84;98.71
69335;SHT31;56477;52.742;15.242;2023-01-10T06:06:51;4.83;98.82
69335;SHT31;56477;52.742;15.242;2023-01-10T06:09:17;4.86;98.75
69335;SHT31;56477;52.742;15.242;2023-01-10T06:11:43;4.86;98.77
69335;SHT31;56477;52.742;15.242;2023-01-10T06:14:09;4.89;98.62
69335;SHT31;56477;52.742;15.242;2023-01-10T06:16:35;4.89;98.66
69335;SHT31;56477;52.742;15.242;2023-01-10T06:19:01;4.90;98.60
69335;SHT31;56477;52.742;15.242;2023-01-10T06:21:27;4.90;98.41
69335;SHT31;56477;52.742;15.242;2023-01-10T06:23:52;4.91;98.49
69335;SHT31;56477;52.742;15.242;2023-01-10T06:26:19;4.93;98.24
69335;SHT31;56477;52.742;15.242;2023-01-10T06:28:44;4.97;98.12
69335;SHT31;56477;52.742;15.242;2023-01-10T06:31:10;4.99;98.15
69335;SHT31;56477;52.742;15.242;2023-01-10T06:33:36;5.04;97.85
69335;SHT31;56477;52.742;15.242;2023-01-10T06:36:04;5.08;97.32
69335;SHT31;56477;52.742;15.242;2023-01-10T06:38:29;5.11;97.48
69335;SHT31;56477;52.742;15.242;2023-01-10T06:40:55;5.11;97.39
69335;SHT31;56477;52.742;15.242;2023-01-10T06:43:21;5.13;97.45
69335;SHT31;56477;52.742;15.242;2023-01-10T06:45:47;5.14;97.28
69335;SHT31;56477;52.742;15.242;2023-01-10T06:48:13;5.13;97.37
69335;SHT31;56477;52.742;15.242;2023-01-10T06:50:39;5.10;97.61
69335;SHT31;56477;52.742;15.242;2023-01-10T06:53:05;5.10;97.72
69335;SHT31;56477;52.742;15.242;2023-01-10T06:55:31;5.10;97.71
69335;SHT31;56477;52.742;15.242;2023-01-10T06:58:01;5.13;97.65
69335;SHT31;56477;52.742;15.242;2023-01-10T07:00:29;5.14;97.73
69335;SHT31;56477;52.742;15.242;2023-01-10T07:02:58;5.13;97.59
69335;SHT31;56477;52.742;15.242;2023-01-10T07:05:25;5.08;97.76
69335;SHT31;56477;52.742;15.242;2023-01-10T07:07:51;5.04;97.76
69335;SHT31;56477;52.742;15.242;2023-01-10T07:10:17;5.01;97.91
69335;SHT31;56477;52.742;15.242;2023-01-10T07:12:43;4.97;98.08
69335;SHT31;56477;52.742;15.242;2023-01-10T07:15:09;4.97;98.08
69335;SHT31;56477;52.742;15.242;2023-01-10T07:17:35;4.96;98.05
69335;SHT31;56477;52.742;15.242;2023-01-10T07:20:03;4.93;98.14
69335;SHT31;56477;52.742;15.242;2023-01-10T07:22:29;4.89;98.18
69335;SHT31;56477;52.742;15.242;2023-01-10T07:24:55;4.89;98.26
69335;SHT31;56477;52.742;15.242;2023-01-10T07:27:21;4.90;98.11
69335;SHT31;56477;52.742;15.242;2023-01-10T07:29:47;4.87;98.05
69335;SHT31;56477;52.742;15.242;2023-01-10T07:32:13;4.87;98.13
69335;SHT31;56477;52.742;15.242;2023-01-10T07:34:40;4.87;98.03
69335;SHT31;56477;52.742;15.242;2023-01-10T07:37:05;4.86;98.06
69335;SHT31;56477;52.742;15.242;2023-01-10T07:39:31;4.89;97.99
69335;SHT31;56477;52.742;15.242;2023-01-10T07:41:57;4.91;97.93
69335;SHT31;56477;52.742;15.242;2023-01-10T07:44:24;4.93;97.98
69335;SHT31;56477;52.742;15.242;2023-01-10T07:46:50;4.89;97.93
69335;SHT31;56477;52.742;15.242;2023-01-10T07:49:16;4.89;97.87
69335;SHT31;56477;52.742;15.242;2023-01-10T07:51:42;4.90;97.94
69335;SHT31;56477;52.742;15.242;2023-01-10T07:54:09;4.93;97.88
69335;SHT31;56477;52.742;15.242;2023-01-10T07:56:34;4.97;97.73
69335;SHT31;56477;52.742;15.242;2023-01-10T07:59:00;4.99;97.71
69335;SHT31;56477;52.742;15.242;2023-01-10T08:01:26;4.99;97.70
69335;SHT31;56477;52.742;15.242;2023-01-10T08:03:52;5.06;97.70
69335;SHT31;56477;52.742;15.242;2023-01-10T08:06:18;5.03;97.80
69335;SHT31;56477;52.742;15.242;2023-01-10T08:08:44;4.97;97.67
69335;SHT31;56477;52.742;15.242;2023-01-10T08:11:10;4.96;98.01
69335;SHT31;56477;52.742;15.242;2023-01-10T08:13:36;5.04;98.05
69335;SHT31;56477;52.742;15.242;2023-01-10T08:16:06;5.08;97.76
69335;SHT31;56477;52.742;15.242;2023-01-10T08:18:33;5.13;97.82
69335;SHT31;56477;52.742;15.242;2023-01-10T08:21:02;5.16;97.75
69335;SHT31;56477;52.742;15.242;2023-01-10T08:23:28;5.20;97.49
69335;SHT31;56477;52.742;15.242;2023-01-10T08:25:57;5.20;97.64
69335;SHT31;56477;52.742;15.242;2023-01-10T08:28:23;5.21;97.75
69335;SHT31;56477;52.742;15.242;2023-01-10T08:30:49;5.20;97.69
69335;SHT31;56477;52.742;15.242;2023-01-10T08:33:23;5.24;97.61
69335;SHT31;56477;52.742;15.242;2023-01-10T08:35:49;5.26;97.59
69335;SHT31;56477;52.742;15.242;2023-01-10T08:38:16;5.30;97.49
69335;SHT31;56477;52.742;15.242;2023-01-10T08:40:42;5.34;97.27
69335;SHT31;56477;52.742;15.242;2023-01-10T08:43:11;5.39;97.08
69335;SHT31;56477;52.742;15.242;2023-01-10T08:45:38;5.37;97.17
69335;SHT31;56477;52.742;15.242;2023-01-10T08:48:05;5.41;97.02
69335;SHT31;56477;52.742;15.242;2023-01-10T08:50:31;5.42;96.96
69335;SHT31;56477;52.742;15.242;2023-01-10T08:52:58;5.44;96.79
69335;SHT31;56477;52.742;15.242;2023-01-10T08:55:25;5.45;96.98
69335;SHT31;56477;52.742;15.242;2023-01-10T08:57:51;5.47;96.70
69335;SHT31;56477;52.742;15.242;2023-01-10T09:00:18;5.52;96.62
69335;SHT31;56477;52.742;15.242;2023-01-10T09:02:44;5.52;96.73
69335;SHT31;56477;52.742;15.242;2023-01-10T09:05:10;5.52;96.88
69335;SHT31;56477;52.742;15.242;2023-01-10T09:07:37;5.58;96.89
69335;SHT31;56477;52.742;15.242;2023-01-10T09:10:07;5.60;96.78
69335;SHT31;56477;52.742;15.242;2023-01-10T09:12:34;5.65;96.76
69335;SHT31;56477;52.742;15.242;2023-01-10T09:15:24;5.73;96.44
69335;SHT31;56477;52.742;15.242;2023-01-10T09:17:55;5.76;96.56
69335;SHT31;56477;52.742;15.242;2023-01-10T09:20:23;5.76;96.67
69335;SHT31;56477;52.742;15.242;2023-01-10T09:22:50;5.79;96.76
69335;SHT31;56477;52.742;15.242;2023-01-10T09:25:16;5.79;96.65
69335;SHT31;56477;52.742;15.242;2023-01-10T09:27:42;5.80;96.65
69335;SHT31;56477;52.742;15.242;2023-01-10T09:30:09;5.78;96.62
69335;SHT31;56477;52.742;15.242;2023-01-10T09:32:35;5.76;96.50
69335;SHT31;56477;52.742;15.242;2023-01-10T09:35:02;5.87;96.66
69335;SHT31;56477;52.742;15.242;2023-01-10T09:37:28;5.86;96.49
69335;SHT31;56477;52.742;15.242;2023-01-10T09:39:54;5.85;96.45
69335;SHT31;56477;52.742;15.242;2023-01-10T09:43:00;5.85;96.62
69335;SHT31;56477;52.742;15.242;2023-01-10T09:45:43;5.87;96.75
69335;SHT31;56477;52.742;15.242;2023-01-10T09:48:23;5.87;96.66
69335;SHT31;56477;52.742;15.242;2023-01-10T09:53:20;5.85;96.64
69335;SHT31;56477;52.742;15.242;2023-01-10T09:55:55;5.86;96.50
69335;SHT31;56477;52.742;15.242;2023-01-10T09:58:25;5.90;96.77
69335;SHT31;56477;52.742;15.242;2023-01-10T10:00:59;5.90;96.73
69335;SHT31;56477;52.742;15.242;2023-01-10T10:06:02;5.96;96.49
69335;SHT31;56477;52.742;15.242;2023-01-10T10:08:29;6.07;96.25
69335;SHT31;56477;52.742;15.242;2023-01-10T10:17:13;6.14;96.01
69335;SHT31;56477;52.742;15.242;2023-01-10T10:20:18;6.14;95.82
69335;SHT31;56477;52.742;15.242;2023-01-10T10:22:44;6.21;96.01
69335;SHT31;56477;52.742;15.242;2023-01-10T10:31:12;6.07;96.20
69335;SHT31;56477;52.742;15.242;2023-01-10T10:39:18;6.09;96.08
69335;SHT31;56477;52.742;15.242;2023-01-10T10:41:48;6.03;96.25
69335;SHT31;56477;52.742;15.242;2023-01-10T10:46:50;6.03;96.24
69335;SHT31;56477;52.742;15.242;2023-01-10T10:49:36;6.09;96.40
69335;SHT31;56477;52.742;15.242;2023-01-10T10:52:12;6.10;96.25
69335;SHT31;56477;52.742;15.242;2023-01-10T10:54:41;6.24;96.08
69335;SHT31;56477;52.742;15.242;2023-01-10T10:57:09;6.44;95.67
69335;SHT31;56477;52.742;15.242;2023-01-10T10:59:36;6.42;95.26
69335;SHT31;56477;52.742;15.242;2023-01-10T11:02:20;6.47;95.10
69335;SHT31;56477;52.742;15.242;2023-01-10T11:04:49;6.55;94.54
69335;SHT31;56477;52.742;15.242;2023-01-10T11:07:17;6.61;94.32
69335;SHT31;56477;52.742;15.242;2023-01-10T11:09:43;6.55;94.00
69335;SHT31;56477;52.742;15.242;2023-01-10T11:12:31;6.55;94.09
69335;SHT31;56477;52.742;15.242;2023-01-10T11:14:58;6.59;94.14
69335;SHT31;56477;52.742;15.242;2023-01-10T11:17:27;6.59;94.17
69335;SHT31;56477;52.742;15.242;2023-01-10T11:22:29;6.55;94.36
69335;SHT31;56477;52.742;15.242;2023-01-10T11:25:00;6.57;94.48
69335;SHT31;56477;52.742;15.242;2023-01-10T11:27:35;6.52;94.21
69335;SHT31;56477;52.742;15.242;2023-01-10T11:30:07;6.48;94.22
69335;SHT31;56477;52.742;15.242;2023-01-10T11:32:37;6.45;94.33
69335;SHT31;56477;52.742;15.242;2023-01-10T11:35:15;6.44;94.76
69335;SHT31;56477;52.742;15.242;2023-01-10T11:37:42;6.44;94.22
69335;SHT31;56477;52.742;15.242;2023-01-10T11:40:21;6.48;94.55
69335;SHT31;56477;52.742;15.242;2023-01-10T11:42:50;6.44;94.56
69335;SHT31;56477;52.742;15.242;2023-01-10T11:47:48;6.47;94.49
69335;SHT31;56477;52.742;15.242;2023-01-10T11:50:38;6.49;94.36
69335;SHT31;56477;52.742;15.242;2023-01-10T11:53:07;6.55;94.54
69335;SHT31;56477;52.742;15.242;2023-01-10T11:55:51;6.51;94.35
69335;SHT31;56477;52.742;15.242;2023-01-10T11:58:17;6.54;94.24
69335;SHT31;56477;52.742;15.242;2023-01-10T12:00:46;6.58;94.54
69335;SHT31;56477;52.742;15.242;2023-01-10T12:03:26;6.57;94.68
69335;SHT31;56477;52.742;15.242;2023-01-10T12:06:03;6.63;94.29
69335;SHT31;56477;52.742;15.242;2023-01-10T12:08:33;6.58;94.28
69335;SHT31;56477;52.742;15.242;2023-01-10T12:11:17;6.57;93.85
69335;SHT31;56477;52.742;15.242;2023-01-10T12:13:48;6.59;93.96
69335;SHT31;56477;52.742;15.242;2023-01-10T12:16:23;6.63;93.98
69335;SHT31;56477;52.742;15.242;2023-01-10T12:18:52;6.64;93.97
69335;SHT31;56477;52.742;15.242;2023-01-10T12:21:28;6.68;94.05
69335;SHT31;56477;52.742;15.242;2023-01-10T12:23:57;6.59;93.89
69335;SHT31;56477;52.742;15.242;2023-01-10T12:26:29;6.67;93.92
69335;SHT31;56477;52.742;15.242;2023-01-10T12:29:00;6.65;93.92
69335;SHT31;56477;52.742;15.242;2023-01-10T12:31:29;6.65;93.85
69335;SHT31;56477;52.742;15.242;2023-01-10T12:34:03;6.57;93.32
69335;SHT31;56477;52.742;15.242;2023-01-10T12:40:03;6.67;93.60
69335;SHT31;56477;52.742;15.242;2023-01-10T12:42:44;6.72;93.31
69335;SHT31;56477;52.742;15.242;2023-01-10T12:45:42;6.68;93.49
69335;SHT31;56477;52.742;15.242;2023-01-10T12:48:34;6.71;93.43
69335;SHT31;56477;52.742;15.242;2023-01-10T12:51:06;6.75;93.38
69335;SHT31;56477;52.742;15.242;2023-01-10T12:53:40;6.78;93.30
69335;SHT31;56477;52.742;15.242;2023-01-10T12:56:12;6.84;93.12
69335;SHT31;56477;52.742;15.242;2023-01-10T13:01:16;6.91;92.97
69335;SHT31;56477;52.742;15.242;2023-01-10T13:03:44;6.96;92.94
69335;SHT31;56477;52.742;15.242;2023-01-10T13:06:20;6.93;92.57
69335;SHT31;56477;52.742;15.242;2023-01-10T13:08:47;6.97;93.01
69335;SHT31;56477;52.742;15.242;2023-01-10T13:11:15;7.03;92.73
69335;SHT31;56477;52.742;15.242;2023-01-10T13:13:50;6.97;92.24
69335;SHT31;56477;52.742;15.242;2023-01-10T13:21:46;7.30;91.82
69335;SHT31;56477;52.742;15.242;2023-01-10T13:24:19;7.53;90.98
69335;SHT31;56477;52.742;15.242;2023-01-10T13:26:58;7.51;90.29
69335;SHT31;56477;52.742;15.242;2023-01-10T13:29:37;7.26;90.17
69335;SHT31;56477;52.742;15.242;2023-01-10T13:32:19;7.17;91.11
69335;SHT31;56477;52.742;15.242;2023-01-10T13:34:46;7.07;91.18
69335;SHT31;56477;52.742;15.242;2023-01-10T13:39:50;6.92;91.68
69335;SHT31;56477;52.742;15.242;2023-01-10T13:42:36;6.85;91.52
69335;SHT31;56477;52.742;15.242;2023-01-10T13:45:28;6.86;91.74
69335;SHT31;56477;52.742;15.242;2023-01-10T13:47:57;6.86;92.29
69335;SHT31;56477;52.742;15.242;2023-01-10T14:06:13;6.69;92.55
69335;SHT31;56477;52.742;15.242;2023-01-10T14:08:47;6.71;91.99
69335;SHT31;56477;52.742;15.242;2023-01-10T14:11:14;6.72;92.33
69335;SHT31;56477;52.742;15.242;2023-01-10T14:13:51;6.75;92.08
69335;SHT31;56477;52.742;15.242;2023-01-10T14:16:33;6.72;92.11
69335;SHT31;56477;52.742;15.242;2023-01-10T14:19:02;6.68;92.21
69335;SHT31;56477;52.742;15.242;2023-01-10T14:21:38;6.63;92.21
69335;SHT31;56477;52.742;15.242;2023-01-10T14:24:05;6.61;92.44
69335;SHT31;56477;52.742;15.242;2023-01-10T14:26:45;6.52;92.69
69335;SHT31;56477;52.742;15.242;2023-01-10T14:29:14;6.47;92.82
69335;SHT31;56477;52.742;15.242;2023-01-10T14:31:48;6.45;92.72
69335;SHT31;56477;52.742;15.242;2023-01-10T14:34:22;6.41;92.64
69335;SHT31;56477;52.742;15.242;2023-01-10T14:37:14;6.49;91.17
69335;SHT31;56477;52.742;15.242;2023-01-10T14:39:43;6.51;91.68
69335;SHT31;56477;52.742;15.242;2023-01-10T14:42:14;6.44;92.02
69335;SHT31;56477;52.742;15.242;2023-01-10T14:45:17;6.44;92.67
69335;SHT31;56477;52.742;15.242;2023-01-10T14:47:44;6.42;92.77
69335;SHT31;56477;52.742;15.242;2023-01-10T14:50:30;6.38;93.10
69335;SHT31;56477;52.742;15.242;2023-01-10T14:52:58;6.42;92.77
69335;SHT31;56477;52.742;15.242;2023-01-10T14:55:24;6.48;92.73
69335;SHT31;56477;52.742;15.242;2023-01-10T14:57:54;6.45;92.75
69335;SHT31;56477;52.742;15.242;2023-01-10T15:00:32;6.49;92.73
69335;SHT31;56477;52.742;15.242;2023-01-10T15:03:00;6.42;92.97
69335;SHT31;56477;52.742;15.242;2023-01-10T15:05:36;6.40;93.18
69335;SHT31;56477;52.742;15.242;2023-01-10T15:08:20;6.40;93.23
69335;SHT31;56477;52.742;15.242;2023-01-10T15:10:48;6.37;93.34
69335;SHT31;56477;52.742;15.242;2023-01-10T15:13:17;6.33;93.32
69335;SHT31;56477;52.742;15.242;2023-01-10T15:15:47;6.30;93.06
69335;SHT31;56477;52.742;15.242;2023-01-10T15:18:35;6.31;93.07
69335;SHT31;56477;52.742;15.242;2023-01-10T15:21:02;6.28;93.08
69335;SHT31;56477;52.742;15.242;2023-01-10T15:23:39;6.27;93.23
69335;SHT31;56477;52.742;15.242;2023-01-10T15:26:08;6.26;93.04
69335;SHT31;56477;52.742;15.242;2023-01-10T15:28:39;6.24;93.40
69335;SHT31;56477;52.742;15.242;2023-01-10T15:31:06;6.26;93.24
69335;SHT31;56477;52.742;15.242;2023-01-10T15:33:34;6.24;93.37
69335;SHT31;56477;52.742;15.242;2023-01-10T15:36:05;6.26;93.43
69335;SHT31;56477;52.742;15.242;2023-01-10T15:38:34;6.26;93.31
69335;SHT31;56477;52.742;15.242;2023-01-10T15:41:04;6.24;93.58
69335;SHT31;56477;52.742;15.242;2023-01-10T15:43:34;6.23;93.64
69335;SHT31;56477;52.742;15.242;2023-01-10T15:46:04;6.23;93.56
69335;SHT31;56477;52.742;15.242;2023-01-10T15:48:39;6.21;93.85
69335;SHT31;56477;52.742;15.242;2023-01-10T15:56:39;6.13;94.10
69335;SHT31;56477;52.742;15.242;2023-01-10T15:59:20;6.10;94.34
69335;SHT31;56477;52.742;15.242;2023-01-10T16:02:20;6.07;94.38
69335;SHT31;56477;52.742;15.242;2023-01-10T16:04:48;6.09;94.02
69335;SHT31;56477;52.742;15.242;2023-01-10T16:07:23;6.10;93.69
69335;SHT31;56477;52.742;15.242;2023-01-10T16:10:05;6.09;93.73
69335;SHT31;56477;52.742;15.242;2023-01-10T16:12:35;6.06;93.90
69335;SHT31;56477;52.742;15.242;2023-01-10T16:15:24;6.10;92.96
69335;SHT31;56477;52.742;15.242;2023-01-10T16:17:51;6.16;92.60
69335;SHT31;56477;52.742;15.242;2023-01-10T16:20:28;6.23;92.28
69335;SHT31;56477;52.742;15.242;2023-01-10T16:22:56;6.18;92.66
69335;SHT31;56477;52.742;15.242;2023-01-10T16:25:34;6.20;92.88
69335;SHT31;56477;52.742;15.242;2023-01-10T16:28:09;6.14;92.93
69335;SHT31;56477;52.742;15.242;2023-01-10T16:30:35;6.11;92.94
69335;SHT31;56477;52.742;15.242;2023-01-10T16:33:10;6.09;93.00
69335;SHT31;56477;52.742;15.242;2023-01-10T16:35:36;6.11;92.94
69335;SHT31;56477;52.742;15.242;2023-01-10T16:38:03;6.06;93.20
69335;SHT31;56477;52.742;15.242;2023-01-10T16:40:34;6.05;93.44
69335;SHT31;56477;52.742;15.242;2023-01-10T16:43:01;6.07;93.46
69335;SHT31;56477;52.742;15.242;2023-01-10T16:45:46;6.09;93.67
69335;SHT31;56477;52.742;15.242;2023-01-10T16:48:13;6.13;93.64
69335;SHT31;56477;52.742;15.242;2023-01-10T16:50:40;6.07;93.99
69335;SHT31;56477;52.742;15.242;2023-01-10T16:53:09;6.09;94.07
69335;SHT31;56477;52.742;15.242;2023-01-10T16:58:09;6.02;94.32
69335;SHT31;56477;52.742;15.242;2023-01-10T17:00:37;5.99;94.58
69335;SHT31;56477;52.742;15.242;2023-01-10T17:03:06;5.93;94.81
69335;SHT31;56477;52.742;15.242;2023-01-10T17:05:36;5.92;94.87
69335;SHT31;56477;52.742;15.242;2023-01-10T17:08:03;5.90;94.86
69335;SHT31;56477;52.742;15.242;2023-01-10T17:10:34;5.87;94.86
69335;SHT31;56477;52.742;15.242;2023-01-10T17:13:03;5.85;95.08
69335;SHT31;56477;52.742;15.242;2023-01-10T17:15:29;5.82;95.30
69335;SHT31;56477;52.742;15.242;2023-01-10T17:17:55;5.75;95.53
69335;SHT31;56477;52.742;15.242;2023-01-10T17:20:21;5.72;95.44
69335;SHT31;56477;52.742;15.242;2023-01-10T17:22:47;5.70;95.60
69335;SHT31;56477;52.742;15.242;2023-01-10T17:25:15;5.69;95.70
69335;SHT31;56477;52.742;15.242;2023-01-10T17:27:42;5.69;95.57
69335;SHT31;56477;52.742;15.242;2023-01-10T17:30:09;5.69;95.65